sensor_id;sensor_type;location;lat;lon;timestamp;P1;durP1;ratioP1;P2;durP2;ratioP2
15699;SDS011;7950;42.744;23.174;2023-05-08T00:00:56;9.97;;;6.27;;
15699;SDS011;7950;42.744;23.174;2023-05-08T00:03:25;6.43;;;5.70;;
15699;SDS011;7950;42.744;23.174;2023-05-08T00:05:53;7.77;;;5.17;;
15699;SDS011;7950;42.744;23.174;2023-05-08T00:08:22;7.53;;;5.70;;
15699;SDS011;7950;42.744;23.174;2023-05-08T00:10:51;6.53;;;5.83;;
15699;SDS011;7950;42.744;23.174;2023-05-08T00:13:19;8.03;;;6.63;;
15699;SDS011;7950;42.744;23.174;2023-05-08T00:15:48;6.97;;;6.27;;
15699;SDS011;7950;42.744;23.174;2023-05-08T00:18:18;8.47;;;6.90;;
15699;SDS011;7950;42.744;23.174;2023-05-08T00:20:46;6.30;;;5.70;;
15699;SDS011;7950;42.744;23.174;2023-05-08T00:23:15;6.80;;;5.67;;
15699;SDS011;7950;42.744;23.174;2023-05-08T00:25:43;6.70;;;5.00;;
15699;SDS011;7950;42.744;23.174;2023-05-08T00:28:12;6.03;;;5.53;;
15699;SDS011;7950;42.744;23.174;2023-05-08T00:30:40;5.43;;;4.83;;
15699;SDS011;7950;42.744;23.174;2023-05-08T00:33:09;6.63;;;5.50;;
15699;SDS011;7950;42.744;23.174;2023-05-08T00:35:51;5.30;;;4.80;;
15699;SDS011;7950;42.744;23.174;2023-05-08T00:38:28;7.37;;;5.43;;
15699;SDS011;7950;42.744;23.174;2023-05-08T00:40:58;6.00;;;5.40;;
15699;SDS011;7950;42.744;23.174;2023-05-08T00:43:27;5.67;;;5.07;;
15699;SDS011;7950;42.744;23.174;2023-05-08T00:45:56;7.13;;;5.50;;
15699;SDS011;7950;42.744;23.174;2023-05-08T00:48:28;7.13;;;5.10;;
15699;SDS011;7950;42.744;23.174;2023-05-08T00:51:02;6.20;;;5.30;;
15699;SDS011;7950;42.744;23.174;2023-05-08T00:53:35;5.67;;;5.17;;
15699;SDS011;7950;42.744;23.174;2023-05-08T00:56:09;6.37;;;5.00;;
15699;SDS011;7950;42.744;23.174;2023-05-08T00:58:40;8.07;;;5.13;;
15699;SDS011;7950;42.744;23.174;2023-05-08T01:01:11;6.63;;;5.47;;
15699;SDS011;7950;42.744;23.174;2023-05-08T01:03:40;6.40;;;5.47;;
15699;SDS011;7950;42.744;23.174;2023-05-08T01:06:11;6.07;;;5.53;;
15699;SDS011;7950;42.744;23.174;2023-05-08T01:08:40;6.17;;;5.53;;
15699;SDS011;7950;42.744;23.174;2023-05-08T01:11:12;6.27;;;5.27;;
15699;SDS011;7950;42.744;23.174;2023-05-08T01:13:55;6.90;;;5.87;;
15699;SDS011;7950;42.744;23.174;2023-05-08T01:16:36;7.73;;;5.77;;
15699;SDS011;7950;42.744;23.174;2023-05-08T01:19:24;6.90;;;5.63;;
15699;SDS011;7950;42.744;23.174;2023-05-08T01:22:19;6.93;;;5.73;;
15699;SDS011;7950;42.744;23.174;2023-05-08T01:28:42;6.10;;;5.50;;
15699;SDS011;7950;42.744;23.174;2023-05-08T01:31:46;6.87;;;5.80;;
15699;SDS011;7950;42.744;23.174;2023-05-08T01:34:43;6.80;;;5.90;;
15699;SDS011;7950;42.744;23.174;2023-05-08T01:37:27;7.60;;;6.00;;
15699;SDS011;7950;42.744;23.174;2023-05-08T01:40:18;8.13;;;5.43;;
15699;SDS011;7950;42.744;23.174;2023-05-08T01:43:06;6.83;;;6.10;;
15699;SDS011;7950;42.744;23.174;2023-05-08T01:45:46;6.43;;;5.83;;
15699;SDS011;7950;42.744;23.174;2023-05-08T01:48:23;7.83;;;6.03;;
15699;SDS011;7950;42.744;23.174;2023-05-08T01:50:59;5.93;;;5.23;;
15699;SDS011;7950;42.744;23.174;2023-05-08T01:53:33;6.83;;;5.13;;
15699;SDS011;7950;42.744;23.174;2023-05-08T01:56:09;8.83;;;5.30;;
15699;SDS011;7950;42.744;23.174;2023-05-08T01:58:44;8.60;;;5.50;;
15699;SDS011;7950;42.744;23.174;2023-05-08T02:01:24;6.47;;;5.23;;
15699;SDS011;7950;42.744;23.174;2023-05-08T02:03:56;8.10;;;5.37;;
15699;SDS011;7950;42.744;23.174;2023-05-08T02:06:28;5.90;;;5.30;;
15699;SDS011;7950;42.744;23.174;2023-05-08T02:08:58;6.60;;;5.90;;
15699;SDS011;7950;42.744;23.174;2023-05-08T02:11:29;8.17;;;5.87;;
15699;SDS011;7950;42.744;23.174;2023-05-08T02:14:01;6.70;;;5.70;;
15699;SDS011;7950;42.744;23.174;2023-05-08T02:16:33;6.73;;;5.90;;
15699;SDS011;7950;42.744;23.174;2023-05-08T02:19:06;6.90;;;5.77;;
15699;SDS011;7950;42.744;23.174;2023-05-08T02:21:38;6.80;;;6.10;;
15699;SDS011;7950;42.744;23.174;2023-05-08T02:24:08;7.60;;;5.37;;
15699;SDS011;7950;42.744;23.174;2023-05-08T02:26:38;7.83;;;5.53;;
15699;SDS011;7950;42.744;23.174;2023-05-08T02:35:00;6.10;;;5.37;;
15699;SDS011;7950;42.744;23.174;2023-05-08T02:37:30;9.83;;;6.03;;
15699;SDS011;7950;42.744;23.174;2023-05-08T02:40:01;6.73;;;5.57;;
15699;SDS011;7950;42.744;23.174;2023-05-08T02:42:35;7.40;;;5.87;;
15699;SDS011;7950;42.744;23.174;2023-05-08T02:45:04;5.67;;;4.97;;
15699;SDS011;7950;42.744;23.174;2023-05-08T02:47:37;6.27;;;5.30;;
15699;SDS011;7950;42.744;23.174;2023-05-08T02:50:15;7.57;;;5.60;;
15699;SDS011;7950;42.744;23.174;2023-05-08T02:52:48;6.90;;;5.33;;
15699;SDS011;7950;42.744;23.174;2023-05-08T02:55:30;7.90;;;5.20;;
15699;SDS011;7950;42.744;23.174;2023-05-08T02:58:08;5.77;;;4.90;;
15699;SDS011;7950;42.744;23.174;2023-05-08T03:00:48;5.57;;;5.07;;
15699;SDS011;7950;42.744;23.174;2023-05-08T03:03:26;6.33;;;5.47;;
15699;SDS011;7950;42.744;23.174;2023-05-08T03:06:07;7.33;;;5.23;;
15699;SDS011;7950;42.744;23.174;2023-05-08T03:08:40;9.03;;;5.33;;
15699;SDS011;7950;42.744;23.174;2023-05-08T03:11:14;6.37;;;5.17;;
15699;SDS011;7950;42.744;23.174;2023-05-08T03:13:47;5.63;;;5.13;;
15699;SDS011;7950;42.744;23.174;2023-05-08T03:16:34;7.97;;;6.33;;
15699;SDS011;7950;42.744;23.174;2023-05-08T03:19:10;7.90;;;5.13;;
15699;SDS011;7950;42.744;23.174;2023-05-08T03:21:50;8.13;;;5.50;;
15699;SDS011;7950;42.744;23.174;2023-05-08T03:24:21;6.03;;;5.03;;
15699;SDS011;7950;42.744;23.174;2023-05-08T03:26:53;7.33;;;6.00;;
15699;SDS011;7950;42.744;23.174;2023-05-08T03:29:25;6.43;;;5.63;;
15699;SDS011;7950;42.744;23.174;2023-05-08T03:31:55;7.10;;;5.30;;
15699;SDS011;7950;42.744;23.174;2023-05-08T03:34:27;6.60;;;5.30;;
15699;SDS011;7950;42.744;23.174;2023-05-08T03:36:59;6.47;;;5.20;;
15699;SDS011;7950;42.744;23.174;2023-05-08T03:39:27;5.97;;;5.37;;
15699;SDS011;7950;42.744;23.174;2023-05-08T03:41:56;7.17;;;4.90;;
15699;SDS011;7950;42.744;23.174;2023-05-08T03:44:25;5.43;;;4.93;;
15699;SDS011;7950;42.744;23.174;2023-05-08T03:46:57;5.90;;;5.30;;
15699;SDS011;7950;42.744;23.174;2023-05-08T03:49:27;5.97;;;4.87;;
15699;SDS011;7950;42.744;23.174;2023-05-08T03:51:58;6.50;;;5.30;;
15699;SDS011;7950;42.744;23.174;2023-05-08T03:54:28;4.90;;;4.50;;
15699;SDS011;7950;42.744;23.174;2023-05-08T03:56:56;6.57;;;4.43;;
15699;SDS011;7950;42.744;23.174;2023-05-08T03:59:27;6.03;;;5.10;;
15699;SDS011;7950;42.744;23.174;2023-05-08T04:02:11;6.17;;;4.60;;
15699;SDS011;7950;42.744;23.174;2023-05-08T04:04:54;5.93;;;4.80;;
15699;SDS011;7950;42.744;23.174;2023-05-08T04:07:49;7.00;;;4.57;;
15699;SDS011;7950;42.744;23.174;2023-05-08T04:10:23;5.53;;;4.47;;
15699;SDS011;7950;42.744;23.174;2023-05-08T04:13:02;8.07;;;5.10;;
15699;SDS011;7950;42.744;23.174;2023-05-08T04:15:37;5.03;;;4.53;;
15699;SDS011;7950;42.744;23.174;2023-05-08T04:18:27;5.63;;;4.90;;
15699;SDS011;7950;42.744;23.174;2023-05-08T04:20:57;6.63;;;4.30;;
15699;SDS011;7950;42.744;23.174;2023-05-08T04:23:31;5.87;;;4.77;;
15699;SDS011;7950;42.744;23.174;2023-05-08T04:26:01;5.40;;;4.57;;
15699;SDS011;7950;42.744;23.174;2023-05-08T04:28:32;5.03;;;4.30;;
15699;SDS011;7950;42.744;23.174;2023-05-08T04:31:01;5.17;;;4.67;;
15699;SDS011;7950;42.744;23.174;2023-05-08T04:33:32;5.23;;;4.73;;
15699;SDS011;7950;42.744;23.174;2023-05-08T04:36:01;5.60;;;4.87;;
15699;SDS011;7950;42.744;23.174;2023-05-08T04:38:34;4.83;;;4.33;;
15699;SDS011;7950;42.744;23.174;2023-05-08T04:41:03;6.90;;;4.80;;
15699;SDS011;7950;42.744;23.174;2023-05-08T04:43:31;5.00;;;4.53;;
15699;SDS011;7950;42.744;23.174;2023-05-08T04:48:54;6.40;;;4.60;;
15699;SDS011;7950;42.744;23.174;2023-05-08T04:51:22;4.97;;;4.47;;
15699;SDS011;7950;42.744;23.174;2023-05-08T04:53:53;4.93;;;4.23;;
15699;SDS011;7950;42.744;23.174;2023-05-08T04:56:21;5.30;;;4.60;;
15699;SDS011;7950;42.744;23.174;2023-05-08T04:58:50;6.47;;;4.80;;
15699;SDS011;7950;42.744;23.174;2023-05-08T05:01:18;4.70;;;4.30;;
15699;SDS011;7950;42.744;23.174;2023-05-08T05:03:46;4.40;;;3.97;;
15699;SDS011;7950;42.744;23.174;2023-05-08T05:06:15;4.40;;;4.00;;
15699;SDS011;7950;42.744;23.174;2023-05-08T05:08:44;4.90;;;4.40;;
15699;SDS011;7950;42.744;23.174;2023-05-08T05:11:13;4.63;;;4.13;;
15699;SDS011;7950;42.744;23.174;2023-05-08T05:13:42;4.90;;;4.40;;
15699;SDS011;7950;42.744;23.174;2023-05-08T05:16:10;4.73;;;4.10;;
15699;SDS011;7950;42.744;23.174;2023-05-08T05:18:39;6.77;;;4.00;;
15699;SDS011;7950;42.744;23.174;2023-05-08T05:21:07;4.23;;;3.83;;
15699;SDS011;7950;42.744;23.174;2023-05-08T05:23:36;4.77;;;4.20;;
15699;SDS011;7950;42.744;23.174;2023-05-08T05:26:05;4.77;;;4.33;;
15699;SDS011;7950;42.744;23.174;2023-05-08T05:28:35;4.43;;;4.03;;
15699;SDS011;7950;42.744;23.174;2023-05-08T05:31:03;5.57;;;4.03;;
15699;SDS011;7950;42.744;23.174;2023-05-08T05:33:32;4.27;;;3.73;;
15699;SDS011;7950;42.744;23.174;2023-05-08T05:36:00;5.13;;;4.27;;
15699;SDS011;7950;42.744;23.174;2023-05-08T05:38:29;8.87;;;5.70;;
15699;SDS011;7950;42.744;23.174;2023-05-08T05:40:58;7.93;;;4.73;;
15699;SDS011;7950;42.744;23.174;2023-05-08T05:43:26;8.00;;;5.00;;
15699;SDS011;7950;42.744;23.174;2023-05-08T05:46:02;8.73;;;5.87;;
15699;SDS011;7950;42.744;23.174;2023-05-08T05:48:31;6.63;;;4.37;;
15699;SDS011;7950;42.744;23.174;2023-05-08T05:51:00;7.00;;;4.97;;
15699;SDS011;7950;42.744;23.174;2023-05-08T05:53:38;4.87;;;4.33;;
15699;SDS011;7950;42.744;23.174;2023-05-08T05:56:06;6.33;;;4.00;;
15699;SDS011;7950;42.744;23.174;2023-05-08T05:58:35;5.07;;;4.50;;
15699;SDS011;7950;42.744;23.174;2023-05-08T06:01:07;5.73;;;4.43;;
15699;SDS011;7950;42.744;23.174;2023-05-08T06:03:35;6.80;;;4.87;;
15699;SDS011;7950;42.744;23.174;2023-05-08T06:06:04;5.20;;;4.33;;
15699;SDS011;7950;42.744;23.174;2023-05-08T06:08:33;13.73;;;6.73;;
15699;SDS011;7950;42.744;23.174;2023-05-08T06:11:02;7.13;;;4.90;;
15699;SDS011;7950;42.744;23.174;2023-05-08T06:13:30;8.83;;;5.10;;
15699;SDS011;7950;42.744;23.174;2023-05-08T06:15:59;6.47;;;4.40;;
15699;SDS011;7950;42.744;23.174;2023-05-08T06:18:29;6.57;;;4.50;;
15699;SDS011;7950;42.744;23.174;2023-05-08T06:20:57;6.23;;;4.47;;
15699;SDS011;7950;42.744;23.174;2023-05-08T06:26:20;4.90;;;4.03;;
15699;SDS011;7950;42.744;23.174;2023-05-08T06:28:49;4.77;;;3.80;;
15699;SDS011;7950;42.744;23.174;2023-05-08T06:31:17;5.10;;;3.70;;
15699;SDS011;7950;42.744;23.174;2023-05-08T06:33:47;4.80;;;4.13;;
15699;SDS011;7950;42.744;23.174;2023-05-08T06:36:16;4.73;;;3.90;;
15699;SDS011;7950;42.744;23.174;2023-05-08T06:38:45;5.67;;;4.23;;
15699;SDS011;7950;42.744;23.174;2023-05-08T06:41:13;6.60;;;4.23;;
15699;SDS011;7950;42.744;23.174;2023-05-08T06:43:42;4.53;;;3.90;;
15699;SDS011;7950;42.744;23.174;2023-05-08T06:46:10;5.00;;;3.50;;
15699;SDS011;7950;42.744;23.174;2023-05-08T06:48:38;4.50;;;3.77;;
15699;SDS011;7950;42.744;23.174;2023-05-08T06:51:08;5.37;;;3.93;;
15699;SDS011;7950;42.744;23.174;2023-05-08T06:53:37;7.80;;;3.90;;
15699;SDS011;7950;42.744;23.174;2023-05-08T06:56:06;7.63;;;4.07;;
15699;SDS011;7950;42.744;23.174;2023-05-08T06:58:34;6.67;;;3.80;;
15699;SDS011;7950;42.744;23.174;2023-05-08T07:01:03;5.87;;;3.50;;
15699;SDS011;7950;42.744;23.174;2023-05-08T07:03:32;4.63;;;3.27;;
15699;SDS011;7950;42.744;23.174;2023-05-08T07:06:00;4.53;;;3.10;;
15699;SDS011;7950;42.744;23.174;2023-05-08T07:08:30;4.40;;;3.53;;
15699;SDS011;7950;42.744;23.174;2023-05-08T07:13:52;3.80;;;3.50;;
15699;SDS011;7950;42.744;23.174;2023-05-08T07:16:20;3.63;;;3.27;;
15699;SDS011;7950;42.744;23.174;2023-05-08T07:18:49;3.57;;;3.27;;
15699;SDS011;7950;42.744;23.174;2023-05-08T07:21:17;3.40;;;3.10;;
15699;SDS011;7950;42.744;23.174;2023-05-08T07:29:39;5.67;;;3.77;;
15699;SDS011;7950;42.744;23.174;2023-05-08T07:32:08;6.87;;;4.53;;
15699;SDS011;7950;42.744;23.174;2023-05-08T07:34:37;5.93;;;3.90;;
15699;SDS011;7950;42.744;23.174;2023-05-08T07:37:06;5.67;;;3.90;;
15699;SDS011;7950;42.744;23.174;2023-05-08T07:39:36;5.03;;;3.13;;
15699;SDS011;7950;42.744;23.174;2023-05-08T07:42:04;5.13;;;4.00;;
15699;SDS011;7950;42.744;23.174;2023-05-08T07:44:36;4.10;;;3.70;;
15699;SDS011;7950;42.744;23.174;2023-05-08T07:47:19;6.07;;;4.10;;
15699;SDS011;7950;42.744;23.174;2023-05-08T07:49:48;10.03;;;4.20;;
15699;SDS011;7950;42.744;23.174;2023-05-08T07:52:18;4.30;;;3.77;;
15699;SDS011;7950;42.744;23.174;2023-05-08T07:54:47;5.17;;;4.17;;
15699;SDS011;7950;42.744;23.174;2023-05-08T08:00:11;6.43;;;4.33;;
15699;SDS011;7950;42.744;23.174;2023-05-08T08:02:42;6.87;;;4.70;;
15699;SDS011;7950;42.744;23.174;2023-05-08T08:05:14;7.37;;;4.20;;
15699;SDS011;7950;42.744;23.174;2023-05-08T08:07:42;5.47;;;4.20;;
15699;SDS011;7950;42.744;23.174;2023-05-08T08:10:12;7.23;;;4.57;;
15699;SDS011;7950;42.744;23.174;2023-05-08T08:12:41;6.60;;;4.67;;
15699;SDS011;7950;42.744;23.174;2023-05-08T08:15:09;7.43;;;4.30;;
15699;SDS011;7950;42.744;23.174;2023-05-08T08:17:38;7.33;;;4.70;;
15699;SDS011;7950;42.744;23.174;2023-05-08T08:20:07;9.20;;;4.97;;
15699;SDS011;7950;42.744;23.174;2023-05-08T08:22:36;5.57;;;4.33;;
15699;SDS011;7950;42.744;23.174;2023-05-08T08:25:24;6.07;;;4.23;;
15699;SDS011;7950;42.744;23.174;2023-05-08T08:27:54;7.80;;;4.63;;
15699;SDS011;7950;42.744;23.174;2023-05-08T08:30:23;7.07;;;5.00;;
15699;SDS011;7950;42.744;23.174;2023-05-08T08:32:58;6.67;;;4.57;;
15699;SDS011;7950;42.744;23.174;2023-05-08T08:35:27;5.60;;;4.27;;
15699;SDS011;7950;42.744;23.174;2023-05-08T08:37:56;4.97;;;4.13;;
15699;SDS011;7950;42.744;23.174;2023-05-08T08:40:26;6.60;;;4.77;;
15699;SDS011;7950;42.744;23.174;2023-05-08T08:42:54;6.80;;;4.57;;
15699;SDS011;7950;42.744;23.174;2023-05-08T08:45:23;9.67;;;4.50;;
15699;SDS011;7950;42.744;23.174;2023-05-08T08:47:52;10.13;;;4.40;;
15699;SDS011;7950;42.744;23.174;2023-05-08T08:50:21;8.10;;;4.57;;
15699;SDS011;7950;42.744;23.174;2023-05-08T08:52:54;7.80;;;4.17;;
15699;SDS011;7950;42.744;23.174;2023-05-08T08:55:32;7.17;;;4.60;;
15699;SDS011;7950;42.744;23.174;2023-05-08T08:58:10;5.33;;;4.23;;
15699;SDS011;7950;42.744;23.174;2023-05-08T09:00:48;5.93;;;4.93;;
15699;SDS011;7950;42.744;23.174;2023-05-08T09:03:18;5.23;;;4.40;;
15699;SDS011;7950;42.744;23.174;2023-05-08T09:05:47;4.93;;;4.43;;
15699;SDS011;7950;42.744;23.174;2023-05-08T09:08:16;5.43;;;4.60;;
15699;SDS011;7950;42.744;23.174;2023-05-08T09:10:47;5.27;;;4.53;;
15699;SDS011;7950;42.744;23.174;2023-05-08T09:13:15;6.97;;;4.90;;
15699;SDS011;7950;42.744;23.174;2023-05-08T09:15:45;12.20;;;5.37;;
15699;SDS011;7950;42.744;23.174;2023-05-08T09:18:20;6.20;;;4.63;;
15699;SDS011;7950;42.744;23.174;2023-05-08T09:20:49;5.60;;;4.77;;
15699;SDS011;7950;42.744;23.174;2023-05-08T09:23:18;5.73;;;4.87;;
15699;SDS011;7950;42.744;23.174;2023-05-08T09:25:48;7.03;;;4.77;;
15699;SDS011;7950;42.744;23.174;2023-05-08T09:28:17;5.20;;;4.57;;
15699;SDS011;7950;42.744;23.174;2023-05-08T09:31:05;6.93;;;4.60;;
15699;SDS011;7950;42.744;23.174;2023-05-08T09:33:34;6.37;;;4.90;;
15699;SDS011;7950;42.744;23.174;2023-05-08T09:36:23;6.80;;;4.60;;
15699;SDS011;7950;42.744;23.174;2023-05-08T09:38:53;8.03;;;4.83;;
15699;SDS011;7950;42.744;23.174;2023-05-08T09:41:23;6.93;;;5.00;;
15699;SDS011;7950;42.744;23.174;2023-05-08T09:43:59;6.17;;;4.90;;
15699;SDS011;7950;42.744;23.174;2023-05-08T09:46:29;5.07;;;4.53;;
15699;SDS011;7950;42.744;23.174;2023-05-08T09:49:00;5.23;;;4.60;;
15699;SDS011;7950;42.744;23.174;2023-05-08T09:54:29;5.93;;;5.20;;
15699;SDS011;7950;42.744;23.174;2023-05-08T09:57:00;8.37;;;5.50;;
15699;SDS011;7950;42.744;23.174;2023-05-08T10:00:00;6.93;;;5.00;;
15699;SDS011;7950;42.744;23.174;2023-05-08T10:02:33;5.43;;;4.93;;
15699;SDS011;7950;42.744;23.174;2023-05-08T10:05:02;7.67;;;5.23;;
15699;SDS011;7950;42.744;23.174;2023-05-08T10:07:37;8.87;;;5.03;;
15699;SDS011;7950;42.744;23.174;2023-05-08T10:10:07;5.80;;;5.27;;
15699;SDS011;7950;42.744;23.174;2023-05-08T10:12:37;9.13;;;5.40;;
15699;SDS011;7950;42.744;23.174;2023-05-08T10:15:08;7.60;;;5.33;;
15699;SDS011;7950;42.744;23.174;2023-05-08T10:17:40;7.27;;;5.07;;
15699;SDS011;7950;42.744;23.174;2023-05-08T10:20:20;7.37;;;5.00;;
15699;SDS011;7950;42.744;23.174;2023-05-08T10:22:54;7.53;;;4.73;;
15699;SDS011;7950;42.744;23.174;2023-05-08T10:25:25;6.90;;;4.87;;
15699;SDS011;7950;42.744;23.174;2023-05-08T10:28:15;7.73;;;4.43;;
15699;SDS011;7950;42.744;23.174;2023-05-08T10:30:57;4.73;;;4.00;;
15699;SDS011;7950;42.744;23.174;2023-05-08T10:33:30;5.00;;;4.13;;
15699;SDS011;7950;42.744;23.174;2023-05-08T10:36:01;4.90;;;4.20;;
15699;SDS011;7950;42.744;23.174;2023-05-08T10:38:31;5.20;;;4.07;;
15699;SDS011;7950;42.744;23.174;2023-05-08T10:41:01;4.70;;;4.20;;
15699;SDS011;7950;42.744;23.174;2023-05-08T10:43:31;7.17;;;4.00;;
15699;SDS011;7950;42.744;23.174;2023-05-08T10:46:04;4.60;;;4.03;;
15699;SDS011;7950;42.744;23.174;2023-05-08T10:48:38;5.80;;;4.20;;
15699;SDS011;7950;42.744;23.174;2023-05-08T10:51:21;4.63;;;3.77;;
15699;SDS011;7950;42.744;23.174;2023-05-08T10:54:04;5.53;;;3.70;;
15699;SDS011;7950;42.744;23.174;2023-05-08T10:56:40;5.73;;;4.20;;
15699;SDS011;7950;42.744;23.174;2023-05-08T10:59:15;10.67;;;4.47;;
15699;SDS011;7950;42.744;23.174;2023-05-08T11:01:46;3.87;;;3.57;;
15699;SDS011;7950;42.744;23.174;2023-05-08T11:04:18;4.17;;;3.60;;
15699;SDS011;7950;42.744;23.174;2023-05-08T11:06:49;3.87;;;3.23;;
15699;SDS011;7950;42.744;23.174;2023-05-08T11:09:19;3.73;;;3.33;;
15699;SDS011;7950;42.744;23.174;2023-05-08T11:11:51;4.40;;;3.80;;
15699;SDS011;7950;42.744;23.174;2023-05-08T11:14:37;3.80;;;3.40;;
15699;SDS011;7950;42.744;23.174;2023-05-08T11:17:09;4.30;;;3.90;;
15699;SDS011;7950;42.744;23.174;2023-05-08T11:19:38;4.40;;;4.00;;
15699;SDS011;7950;42.744;23.174;2023-05-08T11:22:27;4.57;;;3.87;;
15699;SDS011;7950;42.744;23.174;2023-05-08T11:25:07;5.27;;;3.93;;
15699;SDS011;7950;42.744;23.174;2023-05-08T11:30:44;3.97;;;3.37;;
15699;SDS011;7950;42.744;23.174;2023-05-08T11:33:13;4.43;;;4.03;;
15699;SDS011;7950;42.744;23.174;2023-05-08T11:35:45;4.17;;;3.77;;
15699;SDS011;7950;42.744;23.174;2023-05-08T11:38:29;4.40;;;3.70;;
15699;SDS011;7950;42.744;23.174;2023-05-08T11:41:02;6.57;;;3.60;;
15699;SDS011;7950;42.744;23.174;2023-05-08T11:43:41;4.80;;;3.80;;
15699;SDS011;7950;42.744;23.174;2023-05-08T11:46:48;4.30;;;3.90;;
15699;SDS011;7950;42.744;23.174;2023-05-08T11:49:20;4.30;;;3.60;;
15699;SDS011;7950;42.744;23.174;2023-05-08T11:51:56;4.27;;;3.53;;
15699;SDS011;7950;42.744;23.174;2023-05-08T11:54:28;6.37;;;4.23;;
15699;SDS011;7950;42.744;23.174;2023-05-08T11:56:58;3.83;;;3.50;;
15699;SDS011;7950;42.744;23.174;2023-05-08T11:59:27;4.40;;;4.00;;
15699;SDS011;7950;42.744;23.174;2023-05-08T12:01:57;4.57;;;3.40;;
15699;SDS011;7950;42.744;23.174;2023-05-08T12:04:41;4.07;;;3.67;;
15699;SDS011;7950;42.744;23.174;2023-05-08T12:07:12;3.60;;;3.30;;
15699;SDS011;7950;42.744;23.174;2023-05-08T12:09:41;3.87;;;3.57;;
15699;SDS011;7950;42.744;23.174;2023-05-08T12:12:10;3.77;;;3.30;;
15699;SDS011;7950;42.744;23.174;2023-05-08T12:14:38;4.70;;;3.73;;
15699;SDS011;7950;42.744;23.174;2023-05-08T12:22:52;4.77;;;3.70;;
15699;SDS011;7950;42.744;23.174;2023-05-08T12:28:14;4.40;;;3.30;;
15699;SDS011;7950;42.744;23.174;2023-05-08T12:33:42;5.57;;;3.63;;
15699;SDS011;7950;42.744;23.174;2023-05-08T12:36:12;3.80;;;3.43;;
15699;SDS011;7950;42.744;23.174;2023-05-08T12:38:40;6.10;;;3.73;;
15699;SDS011;7950;42.744;23.174;2023-05-08T12:41:09;5.90;;;3.47;;
15699;SDS011;7950;42.744;23.174;2023-05-08T12:43:38;3.97;;;3.57;;
15699;SDS011;7950;42.744;23.174;2023-05-08T12:46:09;3.93;;;3.50;;
15699;SDS011;7950;42.744;23.174;2023-05-08T12:48:40;4.23;;;3.80;;
15699;SDS011;7950;42.744;23.174;2023-05-08T12:51:10;3.83;;;3.53;;
15699;SDS011;7950;42.744;23.174;2023-05-08T12:53:38;4.90;;;3.60;;
15699;SDS011;7950;42.744;23.174;2023-05-08T12:56:07;4.17;;;3.77;;
15699;SDS011;7950;42.744;23.174;2023-05-08T12:58:36;4.30;;;3.90;;
15699;SDS011;7950;42.744;23.174;2023-05-08T13:01:06;4.60;;;4.20;;
15699;SDS011;7950;42.744;23.174;2023-05-08T13:03:39;4.63;;;4.23;;
15699;SDS011;7950;42.744;23.174;2023-05-08T13:06:19;7.53;;;4.47;;
15699;SDS011;7950;42.744;23.174;2023-05-08T13:08:51;9.13;;;5.27;;
15699;SDS011;7950;42.744;23.174;2023-05-08T13:11:36;7.33;;;5.13;;
15699;SDS011;7950;42.744;23.174;2023-05-08T13:14:05;6.10;;;5.00;;
15699;SDS011;7950;42.744;23.174;2023-05-08T13:16:40;9.00;;;5.30;;
15699;SDS011;7950;42.744;23.174;2023-05-08T13:19:10;5.80;;;5.30;;
15699;SDS011;7950;42.744;23.174;2023-05-08T13:21:41;6.40;;;5.20;;
15699;SDS011;7950;42.744;23.174;2023-05-08T13:24:12;8.77;;;6.10;;
15699;SDS011;7950;42.744;23.174;2023-05-08T13:26:41;5.73;;;5.03;;
15699;SDS011;7950;42.744;23.174;2023-05-08T13:29:11;5.40;;;5.00;;
15699;SDS011;7950;42.744;23.174;2023-05-08T13:31:39;7.23;;;5.60;;
15699;SDS011;7950;42.744;23.174;2023-05-08T13:34:08;8.13;;;6.00;;
15699;SDS011;7950;42.744;23.174;2023-05-08T13:36:47;10.47;;;6.13;;
15699;SDS011;7950;42.744;23.174;2023-05-08T13:39:16;6.30;;;5.70;;
15699;SDS011;7950;42.744;23.174;2023-05-08T13:41:45;8.77;;;6.37;;
15699;SDS011;7950;42.744;23.174;2023-05-08T13:44:13;6.53;;;5.73;;
15699;SDS011;7950;42.744;23.174;2023-05-08T13:46:41;10.17;;;6.50;;
15699;SDS011;7950;42.744;23.174;2023-05-08T13:49:10;7.33;;;6.67;;
15699;SDS011;7950;42.744;23.174;2023-05-08T13:51:38;8.07;;;7.03;;
15699;SDS011;7950;42.744;23.174;2023-05-08T13:54:13;11.87;;;7.00;;
15699;SDS011;7950;42.744;23.174;2023-05-08T13:56:42;8.43;;;7.63;;
15699;SDS011;7950;42.744;23.174;2023-05-08T13:59:10;11.63;;;7.90;;
15699;SDS011;7950;42.744;23.174;2023-05-08T14:01:39;7.93;;;6.97;;
15699;SDS011;7950;42.744;23.174;2023-05-08T14:04:07;10.90;;;8.10;;
15699;SDS011;7950;42.744;23.174;2023-05-08T14:06:36;11.57;;;8.50;;
15699;SDS011;7950;42.744;23.174;2023-05-08T14:09:04;9.70;;;8.20;;
15699;SDS011;7950;42.744;23.174;2023-05-08T14:11:35;8.43;;;6.97;;
15699;SDS011;7950;42.744;23.174;2023-05-08T14:14:03;8.57;;;7.67;;
15699;SDS011;7950;42.744;23.174;2023-05-08T14:16:32;6.23;;;5.63;;
15699;SDS011;7950;42.744;23.174;2023-05-08T14:21:51;4.70;;;4.30;;
15699;SDS011;7950;42.744;23.174;2023-05-08T14:24:20;5.20;;;4.73;;
15699;SDS011;7950;42.744;23.174;2023-05-08T14:26:50;6.73;;;4.60;;
15699;SDS011;7950;42.744;23.174;2023-05-08T14:29:18;4.73;;;4.30;;
15699;SDS011;7950;42.744;23.174;2023-05-08T14:31:47;7.43;;;6.83;;
15699;SDS011;7950;42.744;23.174;2023-05-08T14:34:15;19.40;;;5.60;;
15699;SDS011;7950;42.744;23.174;2023-05-08T14:36:44;5.03;;;4.20;;
15699;SDS011;7950;42.744;23.174;2023-05-08T14:39:13;5.50;;;5.00;;
15699;SDS011;7950;42.744;23.174;2023-05-08T14:41:41;6.97;;;5.87;;
15699;SDS011;7950;42.744;23.174;2023-05-08T14:44:31;4.53;;;3.90;;
15699;SDS011;7950;42.744;23.174;2023-05-08T14:46:59;3.83;;;3.53;;
15699;SDS011;7950;42.744;23.174;2023-05-08T14:49:28;9.20;;;6.33;;
15699;SDS011;7950;42.744;23.174;2023-05-08T14:52:04;7.33;;;4.23;;
15699;SDS011;7950;42.744;23.174;2023-05-08T14:54:33;5.10;;;3.57;;
15699;SDS011;7950;42.744;23.174;2023-05-08T14:57:02;3.40;;;3.10;;
15699;SDS011;7950;42.744;23.174;2023-05-08T14:59:32;3.50;;;3.20;;
15699;SDS011;7950;42.744;23.174;2023-05-08T15:02:00;4.20;;;3.07;;
15699;SDS011;7950;42.744;23.174;2023-05-08T15:04:29;4.17;;;3.03;;
15699;SDS011;7950;42.744;23.174;2023-05-08T15:06:57;6.10;;;3.03;;
15699;SDS011;7950;42.744;23.174;2023-05-08T15:09:26;2.70;;;2.50;;
15699;SDS011;7950;42.744;23.174;2023-05-08T15:11:54;3.70;;;2.70;;
15699;SDS011;7950;42.744;23.174;2023-05-08T15:14:23;3.53;;;2.50;;
15699;SDS011;7950;42.744;23.174;2023-05-08T15:16:53;2.47;;;2.27;;
15699;SDS011;7950;42.744;23.174;2023-05-08T15:19:22;2.33;;;2.10;;
15699;SDS011;7950;42.744;23.174;2023-05-08T15:21:50;2.40;;;2.20;;
15699;SDS011;7950;42.744;23.174;2023-05-08T15:24:19;4.17;;;2.40;;
15699;SDS011;7950;42.744;23.174;2023-05-08T15:26:47;2.73;;;2.43;;
15699;SDS011;7950;42.744;23.174;2023-05-08T15:29:16;2.43;;;2.23;;
15699;SDS011;7950;42.744;23.174;2023-05-08T15:31:45;2.53;;;2.33;;
15699;SDS011;7950;42.744;23.174;2023-05-08T15:34:14;9.77;;;2.87;;
15699;SDS011;7950;42.744;23.174;2023-05-08T15:36:43;3.00;;;2.70;;
15699;SDS011;7950;42.744;23.174;2023-05-08T15:39:11;2.70;;;2.50;;
15699;SDS011;7950;42.744;23.174;2023-05-08T15:41:40;3.80;;;2.50;;
15699;SDS011;7950;42.744;23.174;2023-05-08T15:44:08;3.83;;;2.43;;
15699;SDS011;7950;42.744;23.174;2023-05-08T15:46:39;4.00;;;2.40;;
15699;SDS011;7950;42.744;23.174;2023-05-08T15:49:07;2.80;;;2.60;;
15699;SDS011;7950;42.744;23.174;2023-05-08T15:51:37;3.03;;;2.70;;
15699;SDS011;7950;42.744;23.174;2023-05-08T15:54:05;2.80;;;2.60;;
15699;SDS011;7950;42.744;23.174;2023-05-08T15:56:34;2.70;;;2.50;;
15699;SDS011;7950;42.744;23.174;2023-05-08T15:59:02;2.77;;;2.50;;
15699;SDS011;7950;42.744;23.174;2023-05-08T16:01:31;4.03;;;2.63;;
15699;SDS011;7950;42.744;23.174;2023-05-08T16:04:00;3.10;;;2.80;;